sensor_id;sensor_type;location;lat;lon;timestamp;P1;durP1;ratioP1;P2;durP2;ratioP2
14116;SDS011;7137;51.436;6.544;2022-09-29T00:01:09;8.00;;;6.80;;
14116;SDS011;7137;51.436;6.544;2022-09-29T00:04:12;7.70;;;6.57;;
14116;SDS011;7137;51.436;6.544;2022-09-29T00:07:14;7.87;;;7.07;;
14116;SDS011;7137;51.436;6.544;2022-09-29T00:10:17;7.30;;;6.60;;
14116;SDS011;7137;51.436;6.544;2022-09-29T00:13:18;8.77;;;7.73;;
14116;SDS011;7137;51.436;6.544;2022-09-29T00:16:20;7.33;;;6.57;;
14116;SDS011;7137;51.436;6.544;2022-09-29T00:19:22;7.30;;;6.50;;
14116;SDS011;7137;51.436;6.544;2022-09-29T00:22:24;6.80;;;6.10;;
14116;SDS011;7137;51.436;6.544;2022-09-29T00:25:27;7.07;;;6.37;;
14116;SDS011;7137;51.436;6.544;2022-09-29T00:28:29;7.37;;;6.57;;
14116;SDS011;7137;51.436;6.544;2022-09-29T00:31:32;7.30;;;6.60;;
14116;SDS011;7137;51.436;6.544;2022-09-29T00:34:34;6.90;;;6.20;;
14116;SDS011;7137;51.436;6.544;2022-09-29T00:37:36;7.10;;;6.07;;
14116;SDS011;7137;51.436;6.544;2022-09-29T00:40:38;7.07;;;5.97;;
14116;SDS011;7137;51.436;6.544;2022-09-29T00:43:47;7.67;;;6.00;;
14116;SDS011;7137;51.436;6.544;2022-09-29T00:46:51;7.20;;;6.50;;
14116;SDS011;7137;51.436;6.544;2022-09-29T00:49:57;8.97;;;7.00;;
14116;SDS011;7137;51.436;6.544;2022-09-29T00:53:02;7.40;;;6.67;;
14116;SDS011;7137;51.436;6.544;2022-09-29T00:56:12;7.20;;;6.50;;
14116;SDS011;7137;51.436;6.544;2022-09-29T00:59:17;7.13;;;6.40;;
14116;SDS011;7137;51.436;6.544;2022-09-29T01:02:25;7.13;;;6.23;;
14116;SDS011;7137;51.436;6.544;2022-09-29T01:05:28;6.57;;;5.97;;
14116;SDS011;7137;51.436;6.544;2022-09-29T01:08:33;6.90;;;6.20;;
14116;SDS011;7137;51.436;6.544;2022-09-29T01:11:41;7.07;;;5.83;;
14116;SDS011;7137;51.436;6.544;2022-09-29T01:14:42;6.53;;;5.47;;
14116;SDS011;7137;51.436;6.544;2022-09-29T01:17:45;6.73;;;6.03;;
14116;SDS011;7137;51.436;6.544;2022-09-29T01:20:50;7.27;;;6.57;;
14116;SDS011;7137;51.436;6.544;2022-09-29T01:27:48;7.33;;;6.63;;
14116;SDS011;7137;51.436;6.544;2022-09-29T01:31:12;7.70;;;6.57;;
14116;SDS011;7137;51.436;6.544;2022-09-29T01:34:25;7.40;;;6.60;;
14116;SDS011;7137;51.436;6.544;2022-09-29T01:37:40;8.03;;;6.67;;
14116;SDS011;7137;51.436;6.544;2022-09-29T01:40:50;8.07;;;6.47;;
14116;SDS011;7137;51.436;6.544;2022-09-29T01:44:00;9.10;;;6.73;;
14116;SDS011;7137;51.436;6.544;2022-09-29T01:47:08;8.47;;;7.00;;
14116;SDS011;7137;51.436;6.544;2022-09-29T01:50:14;7.70;;;6.63;;
14116;SDS011;7137;51.436;6.544;2022-09-29T01:53:21;7.23;;;6.30;;
14116;SDS011;7137;51.436;6.544;2022-09-29T01:56:29;7.43;;;6.67;;
14116;SDS011;7137;51.436;6.544;2022-09-29T01:59:39;8.03;;;6.90;;
14116;SDS011;7137;51.436;6.544;2022-09-29T02:02:48;7.40;;;6.70;;
14116;SDS011;7137;51.436;6.544;2022-09-29T02:05:54;8.77;;;7.10;;
14116;SDS011;7137;51.436;6.544;2022-09-29T02:08:58;8.53;;;6.83;;
14116;SDS011;7137;51.436;6.544;2022-09-29T02:12:03;8.20;;;6.97;;
14116;SDS011;7137;51.436;6.544;2022-09-29T02:15:06;7.37;;;6.47;;
14116;SDS011;7137;51.436;6.544;2022-09-29T02:18:15;7.67;;;6.87;;
14116;SDS011;7137;51.436;6.544;2022-09-29T02:21:20;8.00;;;7.10;;
14116;SDS011;7137;51.436;6.544;2022-09-29T02:24:23;9.30;;;7.37;;
14116;SDS011;7137;51.436;6.544;2022-09-29T02:27:25;7.27;;;6.47;;
14116;SDS011;7137;51.436;6.544;2022-09-29T02:30:28;9.33;;;6.67;;
14116;SDS011;7137;51.436;6.544;2022-09-29T02:33:31;7.77;;;6.50;;
14116;SDS011;7137;51.436;6.544;2022-09-29T02:36:36;6.97;;;6.27;;
14116;SDS011;7137;51.436;6.544;2022-09-29T02:39:45;8.97;;;6.60;;
14116;SDS011;7137;51.436;6.544;2022-09-29T02:43:02;7.43;;;6.70;;
14116;SDS011;7137;51.436;6.544;2022-09-29T02:46:20;8.80;;;6.63;;
14116;SDS011;7137;51.436;6.544;2022-09-29T02:49:42;7.23;;;6.37;;
14116;SDS011;7137;51.436;6.544;2022-09-29T02:52:56;7.10;;;6.00;;
14116;SDS011;7137;51.436;6.544;2022-09-29T02:56:06;7.00;;;6.07;;
14116;SDS011;7137;51.436;6.544;2022-09-29T02:59:19;6.90;;;6.20;;
14116;SDS011;7137;51.436;6.544;2022-09-29T03:02:24;7.47;;;6.63;;
14116;SDS011;7137;51.436;6.544;2022-09-29T03:05:28;6.53;;;5.80;;
14116;SDS011;7137;51.436;6.544;2022-09-29T03:08:30;7.60;;;6.30;;
14116;SDS011;7137;51.436;6.544;2022-09-29T03:11:32;7.47;;;6.63;;
14116;SDS011;7137;51.436;6.544;2022-09-29T03:14:33;9.17;;;6.60;;
14116;SDS011;7137;51.436;6.544;2022-09-29T03:17:35;7.43;;;6.60;;
14116;SDS011;7137;51.436;6.544;2022-09-29T03:20:38;8.33;;;5.77;;
14116;SDS011;7137;51.436;6.544;2022-09-29T03:23:39;6.83;;;6.10;;
14116;SDS011;7137;51.436;6.544;2022-09-29T03:26:41;6.60;;;5.90;;
14116;SDS011;7137;51.436;6.544;2022-09-29T03:29:42;7.00;;;6.30;;
14116;SDS011;7137;51.436;6.544;2022-09-29T03:32:44;7.37;;;6.17;;
14116;SDS011;7137;51.436;6.544;2022-09-29T03:35:47;10.93;;;6.63;;
14116;SDS011;7137;51.436;6.544;2022-09-29T03:38:49;8.30;;;6.73;;
14116;SDS011;7137;51.436;6.544;2022-09-29T03:41:51;8.80;;;6.23;;
14116;SDS011;7137;51.436;6.544;2022-09-29T03:44:53;7.70;;;6.43;;
14116;SDS011;7137;51.436;6.544;2022-09-29T03:47:54;6.50;;;5.67;;
14116;SDS011;7137;51.436;6.544;2022-09-29T03:50:57;7.17;;;5.87;;
14116;SDS011;7137;51.436;6.544;2022-09-29T03:53:58;6.57;;;5.87;;
14116;SDS011;7137;51.436;6.544;2022-09-29T03:57:00;8.80;;;6.13;;
14116;SDS011;7137;51.436;6.544;2022-09-29T04:00:02;6.80;;;5.80;;
14116;SDS011;7137;51.436;6.544;2022-09-29T04:03:04;6.47;;;5.50;;
14116;SDS011;7137;51.436;6.544;2022-09-29T04:06:07;7.90;;;6.13;;
14116;SDS011;7137;51.436;6.544;2022-09-29T04:09:08;7.67;;;5.97;;
14116;SDS011;7137;51.436;6.544;2022-09-29T04:12:10;7.33;;;5.90;;
14116;SDS011;7137;51.436;6.544;2022-09-29T04:15:11;6.97;;;5.80;;
14116;SDS011;7137;51.436;6.544;2022-09-29T04:18:13;6.40;;;5.37;;
14116;SDS011;7137;51.436;6.544;2022-09-29T04:21:16;6.33;;;5.60;;
14116;SDS011;7137;51.436;6.544;2022-09-29T04:24:18;7.47;;;5.80;;
14116;SDS011;7137;51.436;6.544;2022-09-29T04:27:19;6.73;;;5.80;;
14116;SDS011;7137;51.436;6.544;2022-09-29T04:30:21;7.10;;;5.77;;
14116;SDS011;7137;51.436;6.544;2022-09-29T04:33:22;6.83;;;6.07;;
14116;SDS011;7137;51.436;6.544;2022-09-29T04:36:25;7.97;;;6.03;;
14116;SDS011;7137;51.436;6.544;2022-09-29T04:39:26;6.50;;;5.80;;
14116;SDS011;7137;51.436;6.544;2022-09-29T04:42:28;7.07;;;5.77;;
14116;SDS011;7137;51.436;6.544;2022-09-29T04:45:30;7.70;;;6.23;;
14116;SDS011;7137;51.436;6.544;2022-09-29T04:48:32;7.00;;;6.00;;
14116;SDS011;7137;51.436;6.544;2022-09-29T04:51:35;8.10;;;5.93;;
14116;SDS011;7137;51.436;6.544;2022-09-29T04:54:36;6.63;;;5.37;;
14116;SDS011;7137;51.436;6.544;2022-09-29T04:57:39;7.57;;;5.63;;
14116;SDS011;7137;51.436;6.544;2022-09-29T05:00:43;7.87;;;5.20;;
14116;SDS011;7137;51.436;6.544;2022-09-29T05:03:44;7.37;;;5.80;;
14116;SDS011;7137;51.436;6.544;2022-09-29T05:06:47;7.47;;;5.77;;
14116;SDS011;7137;51.436;6.544;2022-09-29T05:09:50;6.23;;;5.47;;
14116;SDS011;7137;51.436;6.544;2022-09-29T05:12:51;6.63;;;5.73;;
14116;SDS011;7137;51.436;6.544;2022-09-29T05:15:56;7.30;;;6.10;;
14116;SDS011;7137;51.436;6.544;2022-09-29T05:18:58;8.97;;;6.03;;
14116;SDS011;7137;51.436;6.544;2022-09-29T05:22:01;7.63;;;6.13;;
14116;SDS011;7137;51.436;6.544;2022-09-29T05:25:02;7.97;;;5.97;;
14116;SDS011;7137;51.436;6.544;2022-09-29T05:28:04;6.60;;;5.53;;
14116;SDS011;7137;51.436;6.544;2022-09-29T05:31:06;7.43;;;5.80;;
14116;SDS011;7137;51.436;6.544;2022-09-29T05:34:08;7.83;;;6.27;;
14116;SDS011;7137;51.436;6.544;2022-09-29T05:37:11;7.37;;;6.23;;
14116;SDS011;7137;51.436;6.544;2022-09-29T05:40:13;8.30;;;6.47;;
14116;SDS011;7137;51.436;6.544;2022-09-29T05:43:14;6.40;;;5.57;;
14116;SDS011;7137;51.436;6.544;2022-09-29T05:46:16;6.80;;;6.00;;
14116;SDS011;7137;51.436;6.544;2022-09-29T05:49:18;6.73;;;5.47;;
14116;SDS011;7137;51.436;6.544;2022-09-29T05:52:21;7.73;;;5.90;;
14116;SDS011;7137;51.436;6.544;2022-09-29T05:55:23;8.80;;;6.13;;
14116;SDS011;7137;51.436;6.544;2022-09-29T05:58:24;7.80;;;6.27;;
14116;SDS011;7137;51.436;6.544;2022-09-29T06:01:26;8.03;;;6.37;;
14116;SDS011;7137;51.436;6.544;2022-09-29T06:04:27;7.27;;;6.30;;
14116;SDS011;7137;51.436;6.544;2022-09-29T06:07:30;8.20;;;7.30;;
14116;SDS011;7137;51.436;6.544;2022-09-29T06:10:32;8.67;;;7.10;;
14116;SDS011;7137;51.436;6.544;2022-09-29T06:13:36;8.97;;;7.17;;
14116;SDS011;7137;51.436;6.544;2022-09-29T06:16:38;9.00;;;7.33;;
14116;SDS011;7137;51.436;6.544;2022-09-29T06:19:40;10.87;;;8.80;;
14116;SDS011;7137;51.436;6.544;2022-09-29T06:22:43;10.10;;;8.53;;
14116;SDS011;7137;51.436;6.544;2022-09-29T06:25:44;10.27;;;8.90;;
14116;SDS011;7137;51.436;6.544;2022-09-29T06:28:46;10.70;;;9.43;;
14116;SDS011;7137;51.436;6.544;2022-09-29T06:31:48;10.43;;;9.33;;
14116;SDS011;7137;51.436;6.544;2022-09-29T06:34:49;10.43;;;9.30;;
14116;SDS011;7137;51.436;6.544;2022-09-29T06:38:10;10.77;;;9.43;;
14116;SDS011;7137;51.436;6.544;2022-09-29T06:41:11;11.63;;;10.07;;
14116;SDS011;7137;51.436;6.544;2022-09-29T06:44:13;11.27;;;9.40;;
14116;SDS011;7137;51.436;6.544;2022-09-29T06:47:15;11.97;;;9.43;;
14116;SDS011;7137;51.436;6.544;2022-09-29T06:50:17;11.63;;;10.40;;
14116;SDS011;7137;51.436;6.544;2022-09-29T06:53:20;11.07;;;9.80;;
14116;SDS011;7137;51.436;6.544;2022-09-29T06:56:22;12.63;;;10.70;;
14116;SDS011;7137;51.436;6.544;2022-09-29T06:59:23;12.13;;;10.57;;
14116;SDS011;7137;51.436;6.544;2022-09-29T07:02:25;12.87;;;11.67;;
14116;SDS011;7137;51.436;6.544;2022-09-29T07:05:26;14.50;;;12.13;;
14116;SDS011;7137;51.436;6.544;2022-09-29T07:08:29;16.43;;;14.73;;
14116;SDS011;7137;51.436;6.544;2022-09-29T07:11:34;18.40;;;14.93;;
14116;SDS011;7137;51.436;6.544;2022-09-29T07:14:37;15.80;;;14.13;;
14116;SDS011;7137;51.436;6.544;2022-09-29T07:17:39;21.80;;;19.50;;
14116;SDS011;7137;51.436;6.544;2022-09-29T07:20:40;952.20;;;189.10;;
14116;SDS011;7137;51.436;6.544;2022-09-29T07:23:43;1420.40;;;246.20;;
14116;SDS011;7137;51.436;6.544;2022-09-29T07:26:46;133.57;;;57.00;;
14116;SDS011;7137;51.436;6.544;2022-09-29T07:29:48;50.37;;;45.10;;
14116;SDS011;7137;51.436;6.544;2022-09-29T07:32:49;37.80;;;34.07;;
14116;SDS011;7137;51.436;6.544;2022-09-29T07:35:51;30.93;;;28.17;;
14116;SDS011;7137;51.436;6.544;2022-09-29T07:38:54;25.30;;;23.10;;
14116;SDS011;7137;51.436;6.544;2022-09-29T07:41:56;16.90;;;15.43;;
14116;SDS011;7137;51.436;6.544;2022-09-29T07:44:57;12.43;;;11.33;;
14116;SDS011;7137;51.436;6.544;2022-09-29T07:47:59;9.50;;;8.57;;
14116;SDS011;7137;51.436;6.544;2022-09-29T07:51:01;8.67;;;7.77;;
14116;SDS011;7137;51.436;6.544;2022-09-29T07:54:04;7.90;;;6.07;;
14116;SDS011;7137;51.436;6.544;2022-09-29T07:57:06;6.13;;;5.53;;
14116;SDS011;7137;51.436;6.544;2022-09-29T08:00:08;8.40;;;4.83;;
14116;SDS011;7137;51.436;6.544;2022-09-29T08:03:11;8.73;;;5.23;;
14116;SDS011;7137;51.436;6.544;2022-09-29T08:06:12;9.17;;;5.13;;
14116;SDS011;7137;51.436;6.544;2022-09-29T08:09:15;7.47;;;4.93;;
14116;SDS011;7137;51.436;6.544;2022-09-29T08:12:17;6.00;;;4.87;;
14116;SDS011;7137;51.436;6.544;2022-09-29T08:15:19;7.60;;;5.47;;
14116;SDS011;7137;51.436;6.544;2022-09-29T08:18:20;7.23;;;5.40;;
14116;SDS011;7137;51.436;6.544;2022-09-29T08:21:22;8.23;;;5.50;;
14116;SDS011;7137;51.436;6.544;2022-09-29T08:24:25;6.60;;;5.50;;
14116;SDS011;7137;51.436;6.544;2022-09-29T08:27:27;7.87;;;5.97;;
14116;SDS011;7137;51.436;6.544;2022-09-29T08:30:28;7.97;;;6.00;;
14116;SDS011;7137;51.436;6.544;2022-09-29T08:33:31;7.37;;;5.57;;
14116;SDS011;7137;51.436;6.544;2022-09-29T08:36:33;7.00;;;5.67;;
14116;SDS011;7137;51.436;6.544;2022-09-29T08:39:36;7.33;;;5.10;;
14116;SDS011;7137;51.436;6.544;2022-09-29T08:42:42;7.90;;;5.47;;
14116;SDS011;7137;51.436;6.544;2022-09-29T08:45:54;8.90;;;5.80;;
14116;SDS011;7137;51.436;6.544;2022-09-29T08:48:59;6.60;;;5.27;;
14116;SDS011;7137;51.436;6.544;2022-09-29T08:52:16;6.37;;;5.60;;
14116;SDS011;7137;51.436;6.544;2022-09-29T08:55:24;7.87;;;5.30;;
14116;SDS011;7137;51.436;6.544;2022-09-29T08:58:30;7.90;;;5.30;;
14116;SDS011;7137;51.436;6.544;2022-09-29T09:01:33;6.93;;;5.10;;
14116;SDS011;7137;51.436;6.544;2022-09-29T09:04:45;8.40;;;5.60;;
14116;SDS011;7137;51.436;6.544;2022-09-29T09:07:55;9.03;;;5.83;;
14116;SDS011;7137;51.436;6.544;2022-09-29T09:11:04;7.83;;;5.50;;
14116;SDS011;7137;51.436;6.544;2022-09-29T09:14:24;8.83;;;5.60;;
14116;SDS011;7137;51.436;6.544;2022-09-29T09:17:43;7.13;;;5.50;;
14116;SDS011;7137;51.436;6.544;2022-09-29T09:20:58;6.63;;;5.73;;
14116;SDS011;7137;51.436;6.544;2022-09-29T09:24:05;8.13;;;5.73;;
14116;SDS011;7137;51.436;6.544;2022-09-29T09:27:18;7.20;;;5.33;;
14116;SDS011;7137;51.436;6.544;2022-09-29T09:30:24;6.73;;;5.30;;
14116;SDS011;7137;51.436;6.544;2022-09-29T09:33:30;10.07;;;5.57;;
14116;SDS011;7137;51.436;6.544;2022-09-29T09:36:39;6.30;;;4.93;;
14116;SDS011;7137;51.436;6.544;2022-09-29T09:39:47;8.30;;;5.50;;
14116;SDS011;7137;51.436;6.544;2022-09-29T09:42:59;7.40;;;4.83;;
14116;SDS011;7137;51.436;6.544;2022-09-29T09:46:07;7.27;;;5.37;;
14116;SDS011;7137;51.436;6.544;2022-09-29T09:49:18;7.67;;;5.07;;
14116;SDS011;7137;51.436;6.544;2022-09-29T09:52:23;7.00;;;4.93;;
14116;SDS011;7137;51.436;6.544;2022-09-29T09:55:29;7.40;;;5.70;;
14116;SDS011;7137;51.436;6.544;2022-09-29T09:58:42;7.43;;;5.40;;
14116;SDS011;7137;51.436;6.544;2022-09-29T10:01:59;7.80;;;6.13;;
14116;SDS011;7137;51.436;6.544;2022-09-29T10:05:01;7.20;;;5.10;;
14116;SDS011;7137;51.436;6.544;2022-09-29T10:08:03;8.40;;;5.00;;
14116;SDS011;7137;51.436;6.544;2022-09-29T10:11:11;7.63;;;5.17;;
14116;SDS011;7137;51.436;6.544;2022-09-29T10:14:23;9.27;;;4.93;;
14116;SDS011;7137;51.436;6.544;2022-09-29T10:17:29;6.80;;;4.73;;
14116;SDS011;7137;51.436;6.544;2022-09-29T10:20:38;8.97;;;5.23;;
14116;SDS011;7137;51.436;6.544;2022-09-29T10:23:44;6.70;;;5.20;;
14116;SDS011;7137;51.436;6.544;2022-09-29T10:26:52;9.37;;;5.47;;
14116;SDS011;7137;51.436;6.544;2022-09-29T10:29:56;6.63;;;4.40;;
14116;SDS011;7137;51.436;6.544;2022-09-29T10:33:00;7.13;;;4.47;;
14116;SDS011;7137;51.436;6.544;2022-09-29T10:36:07;6.83;;;4.50;;
14116;SDS011;7137;51.436;6.544;2022-09-29T10:42:33;7.50;;;5.13;;
14116;SDS011;7137;51.436;6.544;2022-09-29T10:45:45;6.63;;;3.93;;
14116;SDS011;7137;51.436;6.544;2022-09-29T10:48:51;6.10;;;4.40;;
14116;SDS011;7137;51.436;6.544;2022-09-29T10:52:16;6.50;;;4.20;;
14116;SDS011;7137;51.436;6.544;2022-09-29T10:55:24;5.83;;;3.80;;
14116;SDS011;7137;51.436;6.544;2022-09-29T10:58:28;6.03;;;4.00;;
14116;SDS011;7137;51.436;6.544;2022-09-29T11:01:34;5.43;;;3.40;;
14116;SDS011;7137;51.436;6.544;2022-09-29T11:04:46;5.57;;;3.60;;
14116;SDS011;7137;51.436;6.544;2022-09-29T11:07:49;5.43;;;3.60;;
14116;SDS011;7137;51.436;6.544;2022-09-29T11:11:01;5.50;;;3.70;;
14116;SDS011;7137;51.436;6.544;2022-09-29T11:14:05;6.47;;;3.57;;
14116;SDS011;7137;51.436;6.544;2022-09-29T11:17:25;5.70;;;4.07;;
14116;SDS011;7137;51.436;6.544;2022-09-29T11:20:29;6.00;;;3.43;;
14116;SDS011;7137;51.436;6.544;2022-09-29T11:23:35;4.57;;;2.80;;
14116;SDS011;7137;51.436;6.544;2022-09-29T11:26:48;4.47;;;2.80;;
14116;SDS011;7137;51.436;6.544;2022-09-29T11:30:00;4.90;;;3.20;;
14116;SDS011;7137;51.436;6.544;2022-09-29T11:33:11;6.13;;;3.73;;
14116;SDS011;7137;51.436;6.544;2022-09-29T11:36:25;6.43;;;3.57;;
14116;SDS011;7137;51.436;6.544;2022-09-29T11:39:36;7.43;;;3.83;;
14116;SDS011;7137;51.436;6.544;2022-09-29T11:42:54;6.77;;;4.10;;
14116;SDS011;7137;51.436;6.544;2022-09-29T11:46:10;5.90;;;3.83;;
14116;SDS011;7137;51.436;6.544;2022-09-29T11:49:29;7.03;;;4.17;;
14116;SDS011;7137;51.436;6.544;2022-09-29T11:52:47;6.77;;;4.40;;
14116;SDS011;7137;51.436;6.544;2022-09-29T11:56:03;6.57;;;3.83;;
14116;SDS011;7137;51.436;6.544;2022-09-29T12:06:29;6.03;;;3.57;;
14116;SDS011;7137;51.436;6.544;2022-09-29T12:09:56;5.03;;;2.90;;
14116;SDS011;7137;51.436;6.544;2022-09-29T12:13:11;5.27;;;3.10;;
14116;SDS011;7137;51.436;6.544;2022-09-29T12:16:21;4.40;;;3.03;;
14116;SDS011;7137;51.436;6.544;2022-09-29T12:19:26;4.93;;;2.30;;
14116;SDS011;7137;51.436;6.544;2022-09-29T12:22:32;3.80;;;1.90;;
14116;SDS011;7137;51.436;6.544;2022-09-29T12:25:35;4.57;;;1.93;;
14116;SDS011;7137;51.436;6.544;2022-09-29T12:28:41;5.33;;;2.20;;
14116;SDS011;7137;51.436;6.544;2022-09-29T12:31:47;5.47;;;2.63;;
14116;SDS011;7137;51.436;6.544;2022-09-29T12:34:52;4.73;;;2.90;;
14116;SDS011;7137;51.436;6.544;2022-09-29T12:38:02;4.33;;;2.40;;
14116;SDS011;7137;51.436;6.544;2022-09-29T12:41:15;4.87;;;2.40;;
14116;SDS011;7137;51.436;6.544;2022-09-29T12:44:23;4.10;;;2.60;;
14116;SDS011;7137;51.436;6.544;2022-09-29T12:47:36;6.30;;;2.77;;
14116;SDS011;7137;51.436;6.544;2022-09-29T12:50:49;4.80;;;2.47;;
14116;SDS011;7137;51.436;6.544;2022-09-29T12:54:02;5.57;;;2.83;;
14116;SDS011;7137;51.436;6.544;2022-09-29T12:57:10;4.93;;;2.70;;
14116;SDS011;7137;51.436;6.544;2022-09-29T13:00:15;4.97;;;2.40;;
14116;SDS011;7137;51.436;6.544;2022-09-29T13:03:26;3.97;;;2.27;;
14116;SDS011;7137;51.436;6.544;2022-09-29T13:06:56;3.83;;;1.90;;
14116;SDS011;7137;51.436;6.544;2022-09-29T13:10:23;4.20;;;2.20;;
14116;SDS011;7137;51.436;6.544;2022-09-29T13:13:53;4.37;;;2.40;;
14116;SDS011;7137;51.436;6.544;2022-09-29T13:17:17;6.23;;;2.50;;
14116;SDS011;7137;51.436;6.544;2022-09-29T13:20:40;5.00;;;2.00;;
14116;SDS011;7137;51.436;6.544;2022-09-29T13:23:54;4.53;;;1.90;;
14116;SDS011;7137;51.436;6.544;2022-09-29T13:27:15;3.97;;;1.90;;
14116;SDS011;7137;51.436;6.544;2022-09-29T13:30:26;3.57;;;1.90;;
14116;SDS011;7137;51.436;6.544;2022-09-29T13:33:31;3.87;;;1.80;;
14116;SDS011;7137;51.436;6.544;2022-09-29T13:36:35;5.67;;;2.30;;
14116;SDS011;7137;51.436;6.544;2022-09-29T13:39:39;5.30;;;1.73;;
14116;SDS011;7137;51.436;6.544;2022-09-29T13:42:45;4.77;;;2.10;;
14116;SDS011;7137;51.436;6.544;2022-09-29T13:45:47;4.13;;;2.03;;
14116;SDS011;7137;51.436;6.544;2022-09-29T13:48:53;4.17;;;1.87;;
14116;SDS011;7137;51.436;6.544;2022-09-29T13:52:13;3.47;;;1.80;;
14116;SDS011;7137;51.436;6.544;2022-09-29T13:55:48;4.07;;;1.90;;
14116;SDS011;7137;51.436;6.544;2022-09-29T13:58:57;3.70;;;1.80;;
14116;SDS011;7137;51.436;6.544;2022-09-29T14:01:59;3.63;;;2.03;;
14116;SDS011;7137;51.436;6.544;2022-09-29T14:05:02;3.50;;;1.77;;
14116;SDS011;7137;51.436;6.544;2022-09-29T14:08:10;4.23;;;1.90;;
14116;SDS011;7137;51.436;6.544;2022-09-29T14:11:21;4.20;;;1.57;;
14116;SDS011;7137;51.436;6.544;2022-09-29T14:14:29;4.07;;;1.73;;
14116;SDS011;7137;51.436;6.544;2022-09-29T14:17:34;3.77;;;1.70;;
14116;SDS011;7137;51.436;6.544;2022-09-29T14:20:55;6.60;;;2.73;;
14116;SDS011;7137;51.436;6.544;2022-09-29T14:23:59;4.17;;;2.30;;
14116;SDS011;7137;51.436;6.544;2022-09-29T14:27:13;3.80;;;1.87;;
14116;SDS011;7137;51.436;6.544;2022-09-29T14:30:32;3.57;;;1.73;;
14116;SDS011;7137;51.436;6.544;2022-09-29T14:33:41;4.07;;;2.00;;
14116;SDS011;7137;51.436;6.544;2022-09-29T14:36:45;3.87;;;2.00;;
14116;SDS011;7137;51.436;6.544;2022-09-29T14:39:50;3.80;;;1.80;;
14116;SDS011;7137;51.436;6.544;2022-09-29T14:43:12;3.90;;;1.77;;
14116;SDS011;7137;51.436;6.544;2022-09-29T14:46:22;5.73;;;2.17;;
14116;SDS011;7137;51.436;6.544;2022-09-29T14:53:46;2.70;;;1.60;;
14116;SDS011;7137;51.436;6.544;2022-09-29T14:57:02;3.80;;;1.57;;
14116;SDS011;7137;51.436;6.544;2022-09-29T15:00:13;4.17;;;1.63;;
14116;SDS011;7137;51.436;6.544;2022-09-29T15:03:17;3.13;;;1.53;;
14116;SDS011;7137;51.436;6.544;2022-09-29T15:06:26;5.27;;;2.20;;
14116;SDS011;7137;51.436;6.544;2022-09-29T15:09:33;4.23;;;1.90;;
14116;SDS011;7137;51.436;6.544;2022-09-29T15:12:37;5.07;;;1.70;;
14116;SDS011;7137;51.436;6.544;2022-09-29T15:15:39;4.13;;;1.90;;
14116;SDS011;7137;51.436;6.544;2022-09-29T15:18:49;4.87;;;2.10;;
14116;SDS011;7137;51.436;6.544;2022-09-29T15:22:05;5.30;;;2.20;;
14116;SDS011;7137;51.436;6.544;2022-09-29T15:25:23;3.90;;;1.70;;
14116;SDS011;7137;51.436;6.544;2022-09-29T15:28:30;4.83;;;1.90;;
14116;SDS011;7137;51.436;6.544;2022-09-29T15:31:34;4.67;;;2.00;;
14116;SDS011;7137;51.436;6.544;2022-09-29T15:34:36;5.27;;;2.20;;
14116;SDS011;7137;51.436;6.544;2022-09-29T15:37:52;4.30;;;2.20;;
14116;SDS011;7137;51.436;6.544;2022-09-29T15:40:58;4.67;;;2.03;;
14116;SDS011;7137;51.436;6.544;2022-09-29T15:44:11;12.60;;;3.33;;
14116;SDS011;7137;51.436;6.544;2022-09-29T15:47:19;9.73;;;2.67;;
14116;SDS011;7137;51.436;6.544;2022-09-29T15:50:24;5.47;;;2.10;;
14116;SDS011;7137;51.436;6.544;2022-09-29T15:53:26;4.63;;;2.33;;
14116;SDS011;7137;51.436;6.544;2022-09-29T15:56:30;5.33;;;2.20;;
14116;SDS011;7137;51.436;6.544;2022-09-29T15:59:40;3.93;;;1.83;;
14116;SDS011;7137;51.436;6.544;2022-09-29T16:02:43;4.23;;;2.47;;
14116;SDS011;7137;51.436;6.544;2022-09-29T16:05:51;5.10;;;2.30;;
14116;SDS011;7137;51.436;6.544;2022-09-29T16:08:59;5.30;;;2.60;;
14116;SDS011;7137;51.436;6.544;2022-09-29T16:12:05;5.03;;;2.73;;
14116;SDS011;7137;51.436;6.544;2022-09-29T16:15:10;5.23;;;2.60;;
14116;SDS011;7137;51.436;6.544;2022-09-29T16:18:21;8.33;;;3.37;;
14116;SDS011;7137;51.436;6.544;2022-09-29T16:21:24;4.93;;;2.63;;
14116;SDS011;7137;51.436;6.544;2022-09-29T16:24:34;4.23;;;2.30;;
14116;SDS011;7137;51.436;6.544;2022-09-29T16:27:50;4.77;;;2.70;;
14116;SDS011;7137;51.436;6.544;2022-09-29T16:31:04;5.10;;;2.87;;
14116;SDS011;7137;51.436;6.544;2022-09-29T16:34:20;4.87;;;2.47;;
14116;SDS011;7137;51.436;6.544;2022-09-29T16:37:24;5.60;;;3.03;;
14116;SDS011;7137;51.436;6.544;2022-09-29T16:40:26;5.47;;;2.43;;
14116;SDS011;7137;51.436;6.544;2022-09-29T16:43:27;5.63;;;3.10;;
14116;SDS011;7137;51.436;6.544;2022-09-29T16:46:32;4.50;;;2.73;;
14116;SDS011;7137;51.436;6.544;2022-09-29T16:49:36;7.10;;;2.90;;
14116;SDS011;7137;51.436;6.544;2022-09-29T16:52:47;7.40;;;3.40;;
14116;SDS011;7137;51.436;6.544;2022-09-29T16:55:57;7.63;;;3.37;;
14116;SDS011;7137;51.436;6.544;2022-09-29T16:59:00;6.37;;;3.33;;
14116;SDS011;7137;51.436;6.544;2022-09-29T17:02:08;8.50;;;3.20;;
14116;SDS011;7137;51.436;6.544;2022-09-29T17:05:10;5.60;;;3.10;;
14116;SDS011;7137;51.436;6.544;2022-09-29T17:08:13;5.83;;;2.67;;
14116;SDS011;7137;51.436;6.544;2022-09-29T17:11:18;4.90;;;2.60;;
14116;SDS011;7137;51.436;6.544;2022-09-29T17:14:19;5.67;;;2.67;;
14116;SDS011;7137;51.436;6.544;2022-09-29T17:17:23;4.60;;;2.37;;
14116;SDS011;7137;51.436;6.544;2022-09-29T17:20:26;4.60;;;2.33;;
14116;SDS011;7137;51.436;6.544;2022-09-29T17:23:29;6.70;;;2.70;;
14116;SDS011;7137;51.436;6.544;2022-09-29T17:26:35;5.17;;;2.83;;
14116;SDS011;7137;51.436;6.544;2022-09-29T17:29:56;6.20;;;3.00;;
14116;SDS011;7137;51.436;6.544;2022-09-29T17:32:59;5.27;;;3.10;;
14116;SDS011;7137;51.436;6.544;2022-09-29T17:36:02;5.53;;;2.90;;
14116;SDS011;7137;51.436;6.544;2022-09-29T17:39:04;6.60;;;3.97;;
14116;SDS011;7137;51.436;6.544;2022-09-29T17:42:05;6.40;;;4.27;;
14116;SDS011;7137;51.436;6.544;2022-09-29T17:45:07;6.30;;;3.97;;
14116;SDS011;7137;51.436;6.544;2022-09-29T17:48:11;6.70;;;4.20;;
14116;SDS011;7137;51.436;6.544;2022-09-29T17:51:15;6.13;;;4.00;;
14116;SDS011;7137;51.436;6.544;2022-09-29T17:54:17;6.60;;;3.80;;
14116;SDS011;7137;51.436;6.544;2022-09-29T17:57:21;5.83;;;3.63;;
14116;SDS011;7137;51.436;6.544;2022-09-29T18:00:28;6.20;;;4.17;;
14116;SDS011;7137;51.436;6.544;2022-09-29T18:03:33;7.40;;;4.10;;
14116;SDS011;7137;51.436;6.544;2022-09-29T18:06:35;6.00;;;3.70;;
14116;SDS011;7137;51.436;6.544;2022-09-29T18:09:37;5.73;;;3.63;;
14116;SDS011;7137;51.436;6.544;2022-09-29T18:12:40;5.60;;;3.60;;
14116;SDS011;7137;51.436;6.544;2022-09-29T18:15:42;5.83;;;3.80;;
14116;SDS011;7137;51.436;6.544;2022-09-29T18:18:44;6.33;;;4.20;;
14116;SDS011;7137;51.436;6.544;2022-09-29T18:21:47;8.03;;;4.70;;
14116;SDS011;7137;51.436;6.544;2022-09-29T18:24:48;8.03;;;4.57;;
14116;SDS011;7137;51.436;6.544;2022-09-29T18:27:50;5.73;;;4.10;;
14116;SDS011;7137;51.436;6.544;2022-09-29T18:30:53;6.53;;;4.50;;
14116;SDS011;7137;51.436;6.544;2022-09-29T18:34:02;6.27;;;4.50;;
14116;SDS011;7137;51.436;6.544;2022-09-29T18:37:03;6.87;;;4.50;;
14116;SDS011;7137;51.436;6.544;2022-09-29T18:40:06;6.53;;;4.83;;
14116;SDS011;7137;51.436;6.544;2022-09-29T18:43:08;7.77;;;5.00;;
14116;SDS011;7137;51.436;6.544;2022-09-29T18:46:12;8.47;;;5.00;;
14116;SDS011;7137;51.436;6.544;2022-09-29T18:49:15;7.63;;;4.90;;
14116;SDS011;7137;51.436;6.544;2022-09-29T18:52:17;8.33;;;5.80;;
14116;SDS011;7137;51.436;6.544;2022-09-29T18:55:19;10.33;;;6.10;;
14116;SDS011;7137;51.436;6.544;2022-09-29T18:58:23;9.17;;;5.60;;
14116;SDS011;7137;51.436;6.544;2022-09-29T19:01:24;7.83;;;5.00;;
14116;SDS011;7137;51.436;6.544;2022-09-29T19:04:30;7.07;;;4.83;;
14116;SDS011;7137;51.436;6.544;2022-09-29T19:07:31;8.30;;;5.10;;
14116;SDS011;7137;51.436;6.544;2022-09-29T19:10:33;7.73;;;5.10;;
14116;SDS011;7137;51.436;6.544;2022-09-29T19:13:35;8.03;;;4.60;;
14116;SDS011;7137;51.436;6.544;2022-09-29T19:16:38;8.33;;;4.87;;